Aeroporto :
LOGIN :

Iscrizione | Disclaimer

   EN    FR    IT 

 










Sommario :    VFR   VFR Marginale   IFR   IFR Intensivo   IFR Molto Intensivo
Visibilità : 
Base nubi : 
>= 8 km
>= 3000ft
5 / 8 km
1000 / 3000 ft
1500m / 5 km
500 / 1000 ft
800 / 1500m
200 / 500 ft
< 800m
< 200 ft
Simboli :   Temporali  Nebbia  Neve Forte  Precipitazioni Forti  Vento > 20 kt
SIGMETs :   Varie  Temporali  Ghiacco  Turbolenza  Onda orograficha  Ceneri Vulcaniche






- Altitudine del aeroporto : 1302 ft
- Codice IATA : GNB


LFLS - Grenoble / St. Geoirs

ULTIMO METAR :
  • 021330Z AUTO 33012KT 9999 FEW033 BKN042 08/02 Q1031 NOSIG

METARs OBSOLETI :
  • 021300Z AUTO 34011KT 9999 SCT034 BKN042 BKN048 08/02 Q1031 NOSIG
  • 021230Z AUTO 35012KT 9999 BKN032 BKN042 BKN054 08/02 Q1031 NOSIG
  • 021200Z AUTO 35009KT 320V030 9999 BKN029 08/02 Q1032 NOSIG
  • 021130Z AUTO VRB04KT 9999 SCT028 BKN034 08/03 Q1032 NOSIG
  • 021100Z AUTO 28004KT 200V320 9999 FEW025 07/03 Q1032 NOSIG

TAF TAF LFLS
Valido dal 02 a 09 ore il 03 a 09 ore UTC


020800Z 0209/0309 08006KT 9999 SCT060
BECMG 0209/0212 36010KT CAVOK
BECMG 0217/0219 09006KT
BECMG 0300/0303 BKN020
ATIS : +33 4 76 65 55 89



MetMap, La meteo Aeronautica in un colpo d'occhio ! - Copyright ORBIFLY Dicembre 2007 - Disclaimer

ORBIFLY MET'MAP TEAM :

Programmazione e sviluppo : Alexandra Zaïnal
Concezione : Baudouin d'Aumeries
Supporto tecnico e logistico : Manuel Goepfert
Aiuto : Marc-Olivier Méhu
Aiuto per la traduzione : Arnaldo La Scala




FONTI E CREDITI :

   NOAA